Time;durP1;ratioP1;P1;durP2;ratioP2;P2;SDS_P1;SDS_P2;PMS_P1;PMS_P2;Temp;Humidity;BMP_temperature;BMP_pressure;BME280_temperature;BME280_humidity;BME280_pressure;Samples;Min_cycle;Max_cycle;Signal;HPM_P1;HPM_P2
2023/07/25 00:01:06;;;;;;;7.00;4.53;;;24.00;70.50;;;;;;5014297;28;20386;-71
2023/07/25 00:03:32;;;;;;;6.57;4.22;;;24.00;70.50;;;;;;5014509;28;20037;-68
2023/07/25 00:06:01;;;;;;;7.45;4.13;;;24.00;70.10;;;;;;5013955;28;20046;-71
2023/07/25 00:08:26;;;;;;;7.05;4.03;;;24.00;70.00;;;;;;5014755;28;20036;-72
2023/07/25 00:10:52;;;;;;;7.22;4.50;;;24.00;70.00;;;;;;4996897;28;20528;-72
2023/07/25 00:13:17;;;;;;;6.13;4.30;;;24.00;70.30;;;;;;4994672;28;20060;-72
2023/07/25 00:15:43;;;;;;;6.35;4.18;;;24.00;70.50;;;;;;4995035;28;20422;-72
2023/07/25 00:18:09;;;;;;;6.50;4.32;;;24.00;70.50;;;;;;4994171;28;20030;-72
2023/07/25 00:20:34;;;;;;;6.18;4.30;;;24.00;70.50;;;;;;4994991;28;20125;-71
2023/07/25 00:23:00;;;;;;;6.85;4.50;;;24.00;70.60;;;;;;4994390;28;20022;-71
2023/07/25 00:25:26;;;;;;;6.82;3.90;;;24.00;70.40;;;;;;4994698;28;20518;-71
2023/07/25 00:27:51;;;;;;;5.80;4.45;;;24.00;70.30;;;;;;4994376;28;20022;-72
2023/07/25 00:30:17;;;;;;;7.22;4.32;;;24.00;70.50;;;;;;4994842;28;20030;-71
2023/07/25 00:32:42;;;;;;;5.68;4.25;;;24.00;70.40;;;;;;4994586;28;20030;-71
2023/07/25 00:35:08;;;;;;;7.55;4.00;;;24.00;69.90;;;;;;4994898;28;20061;-71
2023/07/25 00:37:34;;;;;;;5.93;3.78;;;24.00;69.60;;;;;;4994678;28;20411;-71
2023/07/25 00:39:59;;;;;;;5.00;3.40;;;23.90;69.00;;;;;;4994340;28;20076;-71
2023/07/25 00:42:25;;;;;;;5.72;3.83;;;24.00;69.10;;;;;;4994612;28;20375;-71
2023/07/25 00:44:51;;;;;;;6.35;4.28;;;23.90;68.70;;;;;;4994102;28;20034;-71
2023/07/25 00:47:18;;;;;;;4.55;3.53;;;23.90;69.00;;;;;;4994295;28;20508;-71
2023/07/25 00:49:45;;;;;;;3.72;3.10;;;23.90;68.90;;;;;;4994182;28;20267;-71
2023/07/25 00:52:11;;;;;;;3.88;2.97;;;23.90;68.90;;;;;;4993866;28;20030;-72
2023/07/25 00:54:48;;;;;;;5.00;3.42;;;24.00;68.50;;;;;;4994189;28;20033;-71
2023/07/25 00:57:16;;;;;;;5.93;3.33;;;23.90;68.40;;;;;;4993832;28;20074;-71
2023/07/25 00:59:41;;;;;;;5.65;3.83;;;24.00;68.40;;;;;;4994119;28;20030;-71
2023/07/25 01:02:08;;;;;;;4.88;3.58;;;23.90;68.20;;;;;;4976187;28;20041;-72
2023/07/25 01:04:36;;;;;;;4.10;3.13;;;24.00;68.20;;;;;;4993839;28;20035;-71
2023/07/25 01:07:03;;;;;;;4.15;3.05;;;24.00;68.10;;;;;;4993481;28;20162;-72
2023/07/25 01:09:35;;;;;;;4.50;3.20;;;24.00;68.10;;;;;;4994079;28;20057;-71
2023/07/25 01:12:02;;;;;;;5.10;3.13;;;24.00;67.50;;;;;;4993072;28;20085;-71
2023/07/25 01:14:29;;;;;;;4.93;3.20;;;24.00;67.60;;;;;;4993724;28;20034;-71
2023/07/25 01:16:56;;;;;;;4.70;3.10;;;24.00;67.60;;;;;;4993313;28;20030;-72
2023/07/25 01:19:26;;;;;;;5.25;3.13;;;24.00;67.60;;;;;;4994041;28;20485;-71
2023/07/25 01:21:51;;;;;;;4.38;3.25;;;24.00;67.80;;;;;;4993731;28;20026;-71
2023/07/25 01:24:17;;;;;;;4.00;3.15;;;24.00;67.20;;;;;;4992357;28;20121;-71
2023/07/25 01:26:43;;;;;;;5.60;3.00;;;24.00;67.30;;;;;;4993839;28;20034;-71
2023/07/25 01:29:08;;;;;;;3.92;3.08;;;24.00;67.30;;;;;;4992797;28;20157;-71
2023/07/25 01:31:34;;;;;;;4.00;2.88;;;24.00;67.50;;;;;;4993555;28;20026;-71
2023/07/25 01:34:00;;;;;;;3.20;2.42;;;24.00;67.50;;;;;;4993056;28;20038;-71
2023/07/25 01:36:25;;;;;;;4.97;3.13;;;24.00;67.20;;;;;;4993487;28;20045;-71
2023/07/25 01:38:51;;;;;;;5.43;2.88;;;24.00;67.10;;;;;;4993616;28;20371;-71
2023/07/25 01:41:16;;;;;;;3.33;2.53;;;23.90;67.00;;;;;;4992615;28;20022;-70
2023/07/25 01:43:42;;;;;;;4.25;2.95;;;23.90;67.10;;;;;;4992886;28;20023;-70
2023/07/25 01:46:08;;;;;;;3.88;2.80;;;23.90;67.30;;;;;;5002719;28;20030;-70
2023/07/25 01:48:33;;;;;;;3.85;2.55;;;23.80;67.50;;;;;;5007915;28;20023;-71
2023/07/25 01:50:59;;;;;;;5.38;2.95;;;23.80;67.80;;;;;;4992453;28;20023;-71
2023/07/25 01:53:24;;;;;;;3.47;2.70;;;23.70;68.20;;;;;;4993285;28;20065;-71
2023/07/25 01:55:50;;;;;;;5.40;2.95;;;23.70;68.40;;;;;;4993271;28;20458;-71
2023/07/25 01:58:15;;;;;;;4.88;3.30;;;23.70;68.60;;;;;;4992428;28;20085;-71
2023/07/25 02:00:41;;;;;;;4.35;2.92;;;23.70;68.70;;;;;;4975595;28;20073;-71
2023/07/25 02:03:09;;;;;;;5.40;3.03;;;23.70;68.80;;;;;;4992681;28;20109;-71
2023/07/25 02:05:35;;;;;;;3.28;2.63;;;23.60;68.90;;;;;;4988912;28;20379;-71
2023/07/25 02:08:01;;;;;;;5.55;3.10;;;23.60;69.00;;;;;;5012383;28;20037;-72
2023/07/25 02:10:27;;;;;;;3.78;2.65;;;23.60;69.00;;;;;;5012615;28;20026;-72
2023/07/25 02:12:53;;;;;;;4.07;3.15;;;23.60;69.40;;;;;;5011398;28;20041;-71
2023/07/25 02:15:19;;;;;;;3.40;2.70;;;23.60;69.40;;;;;;5012248;28;20122;-72
2023/07/25 02:17:44;;;;;;;3.53;2.42;;;23.60;69.50;;;;;;5012648;28;20474;-71
2023/07/25 02:20:10;;;;;;;3.92;3.00;;;23.60;69.50;;;;;;5001812;28;20023;-71
2023/07/25 02:22:36;;;;;;;2.95;2.60;;;23.50;69.50;;;;;;4993290;28;20030;-72
2023/07/25 02:25:01;;;;;;;3.88;2.80;;;23.50;69.60;;;;;;4992593;28;20041;-72
2023/07/25 02:27:27;;;;;;;3.97;2.47;;;23.60;69.60;;;;;;4993232;28;20501;-71
2023/07/25 02:29:53;;;;;;;5.25;2.90;;;23.60;69.70;;;;;;4992848;28;20109;-70
2023/07/25 02:32:18;;;;;;;4.72;3.17;;;23.60;69.60;;;;;;4991526;28;20045;-71
2023/07/25 02:34:44;;;;;;;4.35;2.88;;;23.60;69.50;;;;;;4993132;28;20030;-71
2023/07/25 02:37:09;;;;;;;4.15;2.88;;;23.60;69.40;;;;;;4996621;28;20352;-70
2023/07/25 02:39:35;;;;;;;3.97;2.60;;;23.60;69.60;;;;;;4996665;28;20109;-70
2023/07/25 02:42:01;;;;;;;6.15;3.00;;;23.60;69.50;;;;;;4996561;28;20460;-71
2023/07/25 02:44:26;;;;;;;5.07;2.65;;;23.60;69.80;;;;;;4996663;28;20080;-71
2023/07/25 02:46:52;;;;;;;4.05;2.70;;;23.60;70.10;;;;;;4996627;28;20037;-71
2023/07/25 02:49:17;;;;;;;5.72;2.42;;;23.60;70.20;;;;;;4996215;28;20033;-71
2023/07/25 02:51:43;;;;;;;3.63;2.80;;;23.50;70.70;;;;;;4996638;28;20382;-71
2023/07/25 02:54:08;;;;;;;3.75;2.78;;;23.50;71.10;;;;;;4996016;28;20109;-72
2023/07/25 02:56:34;;;;;;;4.95;3.42;;;23.40;71.30;;;;;;4996389;28;20030;-71
2023/07/25 02:58:59;;;;;;;4.68;2.92;;;23.40;71.80;;;;;;4996018;28;20026;-71
2023/07/25 03:01:25;;;;;;;4.43;2.92;;;23.30;72.10;;;;;;4995933;28;20026;-71
2023/07/25 03:03:51;;;;;;;4.47;3.22;;;23.30;72.30;;;;;;4996135;28;20022;-71
2023/07/25 03:06:16;;;;;;;4.38;2.80;;;23.30;72.50;;;;;;4995794;28;20172;-71
2023/07/25 03:08:42;;;;;;;4.53;2.58;;;23.20;73.00;;;;;;4995886;28;20109;-71
2023/07/25 03:11:07;;;;;;;4.28;3.22;;;23.10;73.20;;;;;;4996010;28;20050;-71
2023/07/25 03:13:33;;;;;;;9.05;5.03;;;23.10;73.40;;;;;;4995681;28;20057;-71
2023/07/25 03:15:59;;;;;;;9.55;4.63;;;23.10;73.70;;;;;;4995822;28;20058;-71
2023/07/25 03:18:24;;;;;;;11.23;4.82;;;23.10;73.80;;;;;;4995574;28;20038;-71
2023/07/25 03:20:50;;;;;;;4.85;3.80;;;23.10;74.10;;;;;;4995647;28;20379;-71
2023/07/25 03:23:15;;;;;;;5.15;3.40;;;23.10;74.30;;;;;;4995322;28;20027;-71
2023/07/25 03:25:41;;;;;;;5.68;2.65;;;23.00;75.00;;;;;;4995798;28;20038;-71
2023/07/25 03:28:07;;;;;;;5.13;3.67;;;23.00;75.30;;;;;;4995770;28;20467;-71
2023/07/25 03:30:32;;;;;;;4.88;3.40;;;22.90;75.60;;;;;;4995613;28;20030;-71
2023/07/25 03:32:58;;;;;;;5.05;3.45;;;22.90;76.20;;;;;;4996029;28;20101;-71
2023/07/25 03:35:23;;;;;;;5.47;3.33;;;22.80;76.80;;;;;;4995015;28;20034;-71
2023/07/25 03:37:49;;;;;;;4.65;3.38;;;22.90;76.70;;;;;;5007013;28;20022;-71
2023/07/25 03:40:15;;;;;;;4.75;3.08;;;22.90;77.00;;;;;;5014933;28;20026;-71
2023/07/25 03:42:40;;;;;;;4.75;3.58;;;22.80;77.20;;;;;;5015130;28;20030;-71
2023/07/25 03:45:06;;;;;;;4.05;3.35;;;22.80;77.60;;;;;;5014839;28;20063;-71
2023/07/25 03:47:32;;;;;;;6.30;3.20;;;22.80;77.60;;;;;;5013860;28;20030;-71
2023/07/25 03:49:58;;;;;;;5.05;3.22;;;22.80;77.70;;;;;;5015201;28;20379;-71
2023/07/25 03:52:23;;;;;;;4.70;3.35;;;22.80;77.80;;;;;;5014978;28;20049;-70
2023/07/25 03:54:49;;;;;;;5.60;3.25;;;22.80;78.00;;;;;;4996989;28;20089;-70
2023/07/25 03:57:14;;;;;;;4.43;3.22;;;22.80;78.10;;;;;;4995640;28;20470;-73
2023/07/25 03:59:40;;;;;;;5.35;2.90;;;22.80;78.20;;;;;;4977899;28;20036;-70
2023/07/25 04:02:05;;;;;;;4.95;3.03;;;22.80;78.20;;;;;;4995308;28;20113;-70
2023/07/25 04:04:31;;;;;;;4.80;3.15;;;22.80;78.40;;;;;;4994629;28;20030;-71
2023/07/25 04:06:57;;;;;;;6.45;3.17;;;22.70;78.50;;;;;;4995055;28;20046;-71
2023/07/25 04:09:22;;;;;;;5.85;3.22;;;22.80;78.70;;;;;;4994599;28;20026;-71
2023/07/25 04:11:48;;;;;;;7.60;3.17;;;22.80;78.90;;;;;;4994876;28;20084;-71
2023/07/25 04:14:13;;;;;;;5.45;3.20;;;22.80;79.00;;;;;;4977018;28;20530;-71
2023/07/25 04:16:39;;;;;;;5.05;3.63;;;22.80;78.80;;;;;;4994419;28;20101;-71
2023/07/25 04:19:05;;;;;;;7.53;3.25;;;22.80;78.70;;;;;;4994415;28;20109;-71
2023/07/25 04:21:30;;;;;;;5.32;3.35;;;22.80;78.70;;;;;;4994054;28;20049;-71
2023/07/25 04:23:56;;;;;;;5.53;3.05;;;22.90;78.70;;;;;;4994836;28;20030;-71
2023/07/25 04:26:21;;;;;;;5.70;2.95;;;22.90;78.90;;;;;;4993881;28;20034;-71
2023/07/25 04:28:48;;;;;;;8.98;2.85;;;22.90;78.90;;;;;;4994654;28;20030;-71
2023/07/25 04:31:14;;;;;;;4.75;3.22;;;22.90;79.00;;;;;;4993786;28;20367;-71
2023/07/25 04:33:39;;;;;;;4.93;2.85;;;23.00;78.30;;;;;;4994028;28;20077;-71
2023/07/25 04:36:06;;;;;;;4.07;2.60;;;23.10;78.10;;;;;;4994159;28;20068;-71
2023/07/25 04:38:31;;;;;;;4.13;2.90;;;23.20;77.40;;;;;;4993792;28;20022;-70
2023/07/25 04:40:57;;;;;;;4.07;2.55;;;23.30;77.00;;;;;;4994100;28;20098;-71
2023/07/25 04:43:23;;;;;;;4.47;2.80;;;23.40;76.10;;;;;;4992024;28;20029;-70
2023/07/25 04:45:48;;;;;;;5.07;2.80;;;23.50;75.60;;;;;;4992481;28;20053;-73
2023/07/25 04:48:14;;;;;;;4.63;3.30;;;23.60;75.40;;;;;;4993258;28;20022;-71
2023/07/25 04:50:39;;;;;;;4.80;3.30;;;23.70;75.00;;;;;;4994126;28;20027;-71
2023/07/25 04:53:05;;;;;;;4.20;3.20;;;23.90;74.60;;;;;;4993741;28;20053;-70
2023/07/25 04:55:31;;;;;;;3.85;2.63;;;24.00;73.70;;;;;;4993734;28;20023;-71
2023/07/25 04:57:57;;;;;;;8.50;3.45;;;24.10;73.90;;;;;;4993719;28;20477;-71
2023/07/25 05:00:22;;;;;;;5.25;3.20;;;24.30;73.00;;;;;;4993555;28;20026;-71
2023/07/25 05:02:48;;;;;;;5.43;2.85;;;24.40;72.40;;;;;;4994245;28;20410;-71
2023/07/25 05:05:14;;;;;;;5.65;2.95;;;24.50;71.30;;;;;;4993707;28;20398;-71
2023/07/25 05:07:40;;;;;;;10.77;3.47;;;24.60;70.70;;;;;;4993729;28;20126;-70
2023/07/25 05:10:06;;;;;;;4.30;2.70;;;24.80;70.10;;;;;;4994103;28;20022;-70
2023/07/25 05:12:32;;;;;;;4.20;2.60;;;25.00;69.80;;;;;;4993843;28;20038;-71
2023/07/25 05:14:57;;;;;;;3.97;3.00;;;25.20;68.80;;;;;;4994073;28;20029;-70
2023/07/25 05:17:23;;;;;;;4.00;2.83;;;25.20;68.00;;;;;;4993482;28;20030;-71
2023/07/25 05:19:48;;;;;;;3.38;2.15;;;25.30;67.80;;;;;;4993625;28;20128;-70
2023/07/25 05:22:14;;;;;;;4.35;2.72;;;25.40;67.70;;;;;;4993658;28;20109;-70
2023/07/25 05:24:40;;;;;;;5.28;3.05;;;25.50;67.20;;;;;;4993536;28;20494;-70
2023/07/25 05:27:05;;;;;;;5.18;2.80;;;25.40;67.40;;;;;;4993510;28;20026;-70
2023/07/25 05:29:33;;;;;;;5.50;3.08;;;25.40;67.80;;;;;;4993199;28;20034;-70
2023/07/25 05:31:59;;;;;;;4.90;2.72;;;25.30;68.10;;;;;;4993780;28;20035;-70
2023/07/25 05:34:24;;;;;;;4.82;2.80;;;25.10;68.30;;;;;;4993375;28;20489;-70
2023/07/25 05:36:50;;;;;;;5.35;2.97;;;25.00;68.90;;;;;;4992370;28;20070;-70
2023/07/25 05:39:15;;;;;;;6.18;2.80;;;24.90;69.30;;;;;;4993232;28;20026;-70
2023/07/25 05:41:42;;;;;;;5.32;3.15;;;24.70;70.00;;;;;;4978738;28;20105;-70
2023/07/25 05:44:08;;;;;;;5.72;3.50;;;24.50;71.10;;;;;;4993411;28;20123;-70
2023/07/25 05:46:34;;;;;;;5.63;2.97;;;24.40;71.50;;;;;;4991784;28;20046;-70
2023/07/25 05:48:59;;;;;;;5.03;3.03;;;24.30;71.70;;;;;;4993232;28;20026;-71
2023/07/25 05:51:25;;;;;;;6.53;3.05;;;24.20;72.40;;;;;;4993035;28;20379;-71
2023/07/25 05:53:51;;;;;;;3.85;2.83;;;24.20;72.60;;;;;;5005337;28;20100;-71
2023/07/25 05:56:16;;;;;;;4.72;2.97;;;24.10;73.40;;;;;;5012573;28;20029;-72
2023/07/25 05:58:42;;;;;;;9.10;4.00;;;24.00;73.90;;;;;;5012866;28;20030;-71
2023/07/25 06:01:08;;;;;;;5.65;3.40;;;23.90;76.20;;;;;;5012869;28;20076;-71
2023/07/25 06:03:33;;;;;;;9.30;3.60;;;23.80;78.10;;;;;;5012516;28;20026;-70
2023/07/25 06:05:59;;;;;;;6.28;3.03;;;23.70;79.80;;;;;;5012566;28;20054;-70
2023/07/25 06:08:25;;;;;;;4.93;3.63;;;23.60;80.90;;;;;;5012530;28;20381;-71
2023/07/25 06:10:50;;;;;;;8.82;3.50;;;23.60;81.60;;;;;;5017061;28;20024;-70
2023/07/25 06:13:16;;;;;;;5.32;3.45;;;23.60;83.10;;;;;;5019394;28;20041;-70
2023/07/25 06:15:42;;;;;;;5.30;3.30;;;23.50;83.90;;;;;;5018913;28;20033;-70
2023/07/25 06:18:07;;;;;;;5.75;3.40;;;23.20;84.60;;;;;;5019131;28;20065;-71
2023/07/25 06:20:33;;;;;;;5.72;3.28;;;23.10;85.30;;;;;;5013542;28;20029;-71
2023/07/25 06:23:00;;;;;;;5.32;3.92;;;23.00;86.40;;;;;;4999844;28;20028;-71
2023/07/25 06:25:26;;;;;;;7.30;3.80;;;23.00;86.80;;;;;;4999169;28;20165;-71
2023/07/25 06:27:52;;;;;;;7.25;3.50;;;22.90;88.90;;;;;;4999583;28;20034;-71
2023/07/25 06:30:18;;;;;;;7.53;3.45;;;22.80;89.00;;;;;;4982130;28;20034;-70
2023/07/25 06:32:43;;;;;;;7.82;3.83;;;22.70;89.70;;;;;;4999490;28;20030;-71
2023/07/25 06:35:09;;;;;;;5.05;3.47;;;22.70;89.40;;;;;;4999534;28;20023;-71
2023/07/25 06:37:36;;;;;;;7.15;3.90;;;22.70;90.30;;;;;;4999079;28;20387;-71
2023/07/25 06:40:03;;;;;;;4.95;3.15;;;22.70;90.40;;;;;;4999660;28;20297;-70
2023/07/25 06:42:29;;;;;;;5.30;3.70;;;22.70;91.00;;;;;;4999127;28;20058;-71
2023/07/25 06:44:56;;;;;;;5.85;3.58;;;22.70;91.20;;;;;;4999363;28;20057;-71
2023/07/25 06:47:21;;;;;;;8.90;3.38;;;22.60;91.90;;;;;;4981875;28;20427;-68
2023/07/25 06:49:47;;;;;;;4.70;3.42;;;22.60;92.10;;;;;;5000769;28;20022;-70
2023/07/25 06:52:13;;;;;;;4.03;3.63;;;22.60;92.70;;;;;;5000270;28;20023;-71
2023/07/25 06:54:39;;;;;;;5.35;3.83;;;22.40;92.90;;;;;;4999687;28;20386;-71
2023/07/25 06:57:04;;;;;;;9.27;3.60;;;22.40;93.20;;;;;;4999404;28;20105;-71
2023/07/25 06:59:30;;;;;;;6.47;4.05;;;22.30;94.30;;;;;;4999049;28;20459;-71
2023/07/25 07:01:56;;;;;;;6.43;3.95;;;22.30;94.70;;;;;;4999307;28;20022;-71
2023/07/25 07:04:22;;;;;;;4.15;3.58;;;22.20;94.90;;;;;;4998985;28;20034;-71
2023/07/25 07:06:48;;;;;;;8.00;4.13;;;22.10;95.60;;;;;;4998730;28;20053;-71
2023/07/25 07:09:13;;;;;;;11.98;4.22;;;22.10;96.50;;;;;;4981843;28;20156;-71
2023/07/25 07:11:39;;;;;;;5.82;4.00;;;21.90;97.50;;;;;;4998858;28;20027;-71
2023/07/25 07:14:05;;;;;;;6.22;4.03;;;21.70;98.60;;;;;;4999391;28;20121;-71
2023/07/25 07:16:31;;;;;;;5.45;4.07;;;21.70;99.50;;;;;;4999118;28;20065;-71
2023/07/25 07:18:57;;;;;;;6.15;4.32;;;21.60;99.90;;;;;;4999242;28;20062;-71
2023/07/25 07:21:22;;;;;;;5.85;4.22;;;21.50;99.90;;;;;;4979602;28;20026;-71
2023/07/25 07:23:48;;;;;;;8.45;4.60;;;21.50;99.90;;;;;;4995914;28;20105;-71
2023/07/25 07:26:14;;;;;;;6.25;3.90;;;21.50;99.90;;;;;;4995822;28;20031;-70
2023/07/25 07:28:39;;;;;;;6.88;4.55;;;21.40;99.90;;;;;;4995369;28;20030;-70
2023/07/25 07:31:08;;;;;;;7.68;4.00;;;21.40;99.90;;;;;;4995950;28;20087;-71
2023/07/25 07:33:34;;;;;;;6.53;4.30;;;21.30;99.90;;;;;;4995501;28;20066;-72
2023/07/25 07:36:00;;;;;;;7.55;4.43;;;21.10;99.90;;;;;;4996026;28;20466;-71
2023/07/25 07:38:25;;;;;;;6.03;3.90;;;21.10;99.90;;;;;;4997361;28;20123;-69
2023/07/25 07:40:51;;;;;;;7.03;4.28;;;21.00;99.90;;;;;;4995732;28;20075;-71
2023/07/25 07:43:17;;;;;;;5.40;4.40;;;20.90;99.90;;;;;;4995714;28;20026;-71
2023/07/25 07:45:42;;;;;;;8.65;4.78;;;20.80;99.90;;;;;;4994959;28;20034;-71
2023/07/25 07:48:08;;;;;;;7.90;5.25;;;20.70;99.90;;;;;;4995479;28;20110;-71
2023/07/25 07:50:34;;;;;;;6.53;4.97;;;20.70;99.90;;;;;;4978540;28;20403;-70
2023/07/25 07:53:00;;;;;;;7.47;5.20;;;20.60;99.90;;;;;;4996322;28;20069;-70
2023/07/25 07:55:25;;;;;;;6.03;4.68;;;20.60;99.90;;;;;;4997955;28;20030;-70
2023/07/25 07:57:51;;;;;;;7.07;4.20;;;20.50;99.90;;;;;;5015185;28;20032;-70
2023/07/25 08:00:17;;;;;;;6.85;4.70;;;20.40;99.90;;;;;;5014983;28;20030;-70
2023/07/25 08:02:44;;;;;;;7.25;4.88;;;20.40;99.90;;;;;;5014274;28;20030;-70
2023/07/25 08:05:11;;;;;;;7.07;4.10;;;20.40;99.90;;;;;;5014246;28;20145;-70
2023/07/25 08:07:37;;;;;;;5.43;4.03;;;20.30;99.90;;;;;;5014014;28;20046;-70
2023/07/25 08:10:03;;;;;;;10.88;4.60;;;20.30;99.90;;;;;;5014770;28;20370;-71
2023/07/25 08:12:29;;;;;;;7.00;4.40;;;20.30;99.90;;;;;;5014164;28;20049;-71
2023/07/25 08:14:55;;;;;;;5.35;3.63;;;20.20;99.90;;;;;;5006025;28;20042;-70
2023/07/25 08:17:20;;;;;;;6.60;3.55;;;20.10;99.90;;;;;;4994789;28;20042;-70
2023/07/25 08:19:46;;;;;;;4.60;3.22;;;20.10;99.90;;;;;;4994373;28;20030;-71
2023/07/25 08:22:12;;;;;;;5.65;3.67;;;20.10;99.90;;;;;;4994971;28;20085;-71
2023/07/25 08:24:39;;;;;;;4.40;3.20;;;20.10;99.90;;;;;;4994507;28;20065;-71
2023/07/25 08:27:05;;;;;;;6.88;3.20;;;20.10;99.90;;;;;;4994891;28;20030;-70
2023/07/25 08:29:31;;;;;;;6.28;3.78;;;20.10;99.90;;;;;;4994372;28;20091;-71
2023/07/25 08:31:56;;;;;;;6.15;3.60;;;20.00;99.90;;;;;;4994860;28;20101;-70
2023/07/25 08:34:22;;;;;;;3.60;2.90;;;19.90;99.90;;;;;;4994454;28;20030;-71
2023/07/25 08:36:47;;;;;;;4.82;3.38;;;19.90;99.90;;;;;;4994322;28;20037;-71
2023/07/25 08:39:13;;;;;;;5.30;3.45;;;19.90;99.90;;;;;;4994748;28;20026;-71
2023/07/25 08:41:45;;;;;;;3.92;3.17;;;19.90;99.90;;;;;;4994320;28;20528;-71
2023/07/25 08:44:12;;;;;;;6.22;3.75;;;19.80;99.90;;;;;;4994695;28;20030;-72
2023/07/25 08:46:44;;;;;;;6.07;3.40;;;19.80;99.90;;;;;;4994133;28;20525;-71
2023/07/25 08:49:14;;;;;;;5.57;3.75;;;19.80;99.90;;;;;;4994667;28;20037;-71
2023/07/25 08:51:42;;;;;;;5.30;3.60;;;19.80;99.90;;;;;;4994222;28;20026;-71
2023/07/25 08:54:18;;;;;;;7.18;3.83;;;19.70;99.90;;;;;;4994461;28;20550;-71
2023/07/25 08:56:45;;;;;;;6.93;3.80;;;19.80;99.90;;;;;;4994113;28;20034;-71
2023/07/25 08:59:12;;;;;;;5.80;3.70;;;19.80;99.90;;;;;;4993998;28;20026;-71
2023/07/25 09:01:38;;;;;;;5.85;4.28;;;19.80;99.90;;;;;;4993840;28;20081;-71
2023/07/25 09:04:04;;;;;;;5.05;3.70;;;19.90;99.90;;;;;;4994236;28;20030;-71
2023/07/25 09:06:33;;;;;;;5.40;3.58;;;19.90;99.90;;;;;;4993566;28;20571;-72
2023/07/25 09:09:00;;;;;;;5.13;3.78;;;19.90;99.90;;;;;;4994108;28;20081;-72
2023/07/25 09:11:27;;;;;;;4.20;3.40;;;20.00;99.90;;;;;;4993968;28;20042;-71
2023/07/25 09:13:53;;;;;;;8.90;3.95;;;20.00;99.90;;;;;;4993618;28;20085;-71
2023/07/25 09:16:18;;;;;;;5.13;3.45;;;20.00;99.90;;;;;;4994129;28;20036;-70
2023/07/25 09:18:44;;;;;;;6.82;3.90;;;20.00;99.90;;;;;;4993549;28;20588;-71
2023/07/25 09:21:12;;;;;;;10.13;4.00;;;20.00;99.90;;;;;;4993964;28;20113;-70
2023/07/25 09:23:37;;;;;;;11.32;4.32;;;20.00;99.90;;;;;;4993494;28;20096;-71
2023/07/25 09:26:10;;;;;;;8.80;3.80;;;20.00;99.90;;;;;;4976346;28;20451;-70
2023/07/25 09:28:46;;;;;;;5.30;3.83;;;20.00;99.90;;;;;;4993510;28;20109;-72
2023/07/25 09:31:12;;;;;;;6.10;3.70;;;20.00;99.90;;;;;;5002025;28;20077;-72
2023/07/25 09:33:38;;;;;;;5.65;4.20;;;19.90;99.90;;;;;;5012969;28;20030;-72
2023/07/25 09:36:05;;;;;;;8.52;3.30;;;19.90;99.90;;;;;;5013239;28;20072;-71
2023/07/25 09:38:32;;;;;;;8.02;3.95;;;19.90;99.90;;;;;;5013394;28;20058;-71
2023/07/25 09:40:58;;;;;;;5.10;3.90;;;19.90;99.90;;;;;;5012762;28;20022;-72
2023/07/25 09:43:25;;;;;;;4.72;3.17;;;19.90;99.90;;;;;;5012935;28;20517;-72
2023/07/25 09:45:51;;;;;;;4.72;3.60;;;19.90;99.90;;;;;;5011977;28;20394;-71
2023/07/25 09:48:18;;;;;;;5.35;3.70;;;19.90;99.90;;;;;;5013146;28;20072;-72
2023/07/25 09:50:46;;;;;;;7.72;3.50;;;19.90;99.90;;;;;;5012725;28;20036;-71
2023/07/25 09:53:16;;;;;;;5.40;3.35;;;20.00;99.90;;;;;;5013159;28;20026;-71
2023/07/25 09:55:44;;;;;;;6.30;3.78;;;20.10;99.90;;;;;;5012659;28;20414;-71
2023/07/25 09:58:10;;;;;;;6.63;3.88;;;20.20;99.90;;;;;;5012945;28;20022;-71
2023/07/25 10:00:36;;;;;;;5.28;3.50;;;20.30;99.90;;;;;;5012303;28;20108;-72
2023/07/25 10:03:01;;;;;;;6.20;3.20;;;20.40;99.90;;;;;;5011331;28;20105;-71
2023/07/25 10:05:28;;;;;;;5.68;3.33;;;20.60;99.90;;;;;;5012679;28;20442;-71
2023/07/25 10:07:56;;;;;;;8.68;3.30;;;20.70;99.90;;;;;;5012473;28;20471;-71
2023/07/25 10:10:21;;;;;;;4.78;2.95;;;20.80;99.90;;;;;;5012914;28;20022;-71
2023/07/25 10:12:47;;;;;;;6.97;3.45;;;20.90;99.90;;;;;;5012541;28;20100;-71
2023/07/25 10:15:13;;;;;;;7.80;3.17;;;20.90;99.90;;;;;;5012948;28;20037;-71
2023/07/25 10:17:39;;;;;;;5.78;3.40;;;21.00;99.90;;;;;;5012390;28;20022;-72
2023/07/25 10:20:06;;;;;;;6.22;3.58;;;21.10;99.90;;;;;;5012726;28;20030;-72
2023/07/25 10:22:37;;;;;;;5.32;2.95;;;21.20;99.90;;;;;;5012672;28;20030;-72
2023/07/25 10:25:09;;;;;;;4.53;2.67;;;21.30;99.90;;;;;;4996435;28;20069;-72
2023/07/25 10:27:34;;;;;;;4.93;2.65;;;21.30;99.90;;;;;;4975725;28;20100;-71
2023/07/25 10:30:01;;;;;;;4.32;2.75;;;21.40;99.90;;;;;;4975321;28;20027;-72
2023/07/25 10:32:44;;;;;;;3.88;2.60;;;21.40;99.90;;;;;;4992931;28;20030;-72
2023/07/25 10:35:10;;;;;;;3.90;2.50;;;21.50;99.90;;;;;;4992960;28;20069;-72
2023/07/25 10:37:42;;;;;;;4.57;2.60;;;21.50;98.90;;;;;;4993009;28;20376;-72
2023/07/25 10:40:16;;;;;;;3.15;2.22;;;21.50;98.20;;;;;;4992954;28;20062;-70
2023/07/25 10:42:47;;;;;;;5.65;2.92;;;21.50;97.90;;;;;;4992581;28;20026;-72
2023/07/25 10:45:46;;;;;;;3.95;2.58;;;21.50;97.50;;;;;;4992519;28;20436;-71
2023/07/25 10:48:31;;;;;;;5.35;3.05;;;21.60;97.70;;;;;;4993259;28;20065;-71
2023/07/25 10:50:58;;;;;;;6.05;2.53;;;21.60;97.90;;;;;;4992435;28;20054;-71
2023/07/25 10:53:24;;;;;;;4.25;2.60;;;21.70;98.20;;;;;;4992907;28;20118;-71
2023/07/25 10:56:05;;;;;;;4.10;2.97;;;21.70;97.60;;;;;;4992710;28;20471;-71
2023/07/25 10:58:31;;;;;;;4.20;2.70;;;21.70;97.10;;;;;;4996303;28;20038;-71
2023/07/25 11:00:58;;;;;;;5.00;3.10;;;21.70;97.10;;;;;;4995867;28;20035;-71
2023/07/25 11:03:31;;;;;;;6.82;3.20;;;21.80;97.40;;;;;;4996711;28;20054;-71
2023/07/25 11:06:06;;;;;;;7.40;3.60;;;21.80;97.60;;;;;;4995718;28;20097;-71
2023/07/25 11:08:42;;;;;;;4.45;3.42;;;21.80;98.50;;;;;;4996376;28;20035;-71
2023/07/25 11:11:12;;;;;;;5.38;3.67;;;21.70;99.70;;;;;;4996524;28;20030;-71
2023/07/25 11:13:41;;;;;;;6.27;3.53;;;21.70;99.90;;;;;;4996596;28;20374;-71
2023/07/25 11:16:08;;;;;;;7.78;3.92;;;21.70;99.90;;;;;;4996238;28;20295;-71
2023/07/25 11:18:37;;;;;;;5.68;3.20;;;21.60;99.90;;;;;;4996396;28;20430;-71
2023/07/25 11:21:09;;;;;;;5.55;3.28;;;21.60;99.90;;;;;;4995872;28;20025;-71
2023/07/25 11:23:35;;;;;;;4.40;3.03;;;21.60;99.90;;;;;;4996277;28;20034;-71
2023/07/25 11:26:06;;;;;;;5.22;2.95;;;21.50;99.90;;;;;;4978176;28;20031;-71
2023/07/25 11:28:32;;;;;;;5.85;3.33;;;21.30;99.90;;;;;;4996101;28;20027;-70
2023/07/25 11:30:58;;;;;;;7.18;3.75;;;21.20;99.90;;;;;;4995702;28;20026;-72
2023/07/25 11:33:24;;;;;;;4.63;3.80;;;21.20;99.90;;;;;;4998423;28;20161;-71
2023/07/25 11:35:54;;;;;;;6.57;3.35;;;21.10;99.90;;;;;;4995665;28;20113;-71
2023/07/25 11:38:20;;;;;;;3.80;3.08;;;21.10;99.90;;;;;;4995950;28;20022;-70
2023/07/25 11:40:53;;;;;;;3.42;2.60;;;21.00;99.90;;;;;;4995434;28;20049;-71
2023/07/25 11:43:20;;;;;;;6.20;2.92;;;21.00;99.90;;;;;;4995810;28;20416;-71
2023/07/25 11:45:46;;;;;;;5.35;3.30;;;21.00;99.90;;;;;;4995302;28;20061;-72
2023/07/25 11:48:14;;;;;;;4.65;2.80;;;21.00;99.90;;;;;;4978253;28;20427;-71
2023/07/25 11:50:42;;;;;;;3.42;2.88;;;21.00;99.90;;;;;;4995678;28;20084;-72
2023/07/25 11:53:09;;;;;;;5.72;3.00;;;21.00;99.90;;;;;;4995478;28;20092;-72
2023/07/25 11:55:35;;;;;;;4.47;2.55;;;21.10;99.90;;;;;;4995284;28;20060;-72
2023/07/25 11:58:02;;;;;;;3.70;2.40;;;21.20;99.90;;;;;;4995456;28;20352;-72
2023/07/25 12:00:41;;;;;;;7.43;2.25;;;21.30;99.90;;;;;;4995476;28;20371;-71
2023/07/25 12:03:18;;;;;;;3.53;2.33;;;21.40;99.90;;;;;;4995150;28;20034;-71
2023/07/25 12:05:51;;;;;;;4.50;2.40;;;21.50;99.90;;;;;;5009648;28;20026;-72
2023/07/25 12:08:40;;;;;;;3.60;2.65;;;21.70;99.80;;;;;;5014417;28;20076;-72
2023/07/25 12:11:14;;;;;;;4.70;2.17;;;21.80;99.30;;;;;;5014214;28;20030;-72
2023/07/25 12:13:51;;;;;;;4.40;2.00;;;22.00;97.80;;;;;;5014423;28;20120;-72
2023/07/25 12:16:27;;;;;;;5.03;2.25;;;22.10;97.30;;;;;;5014778;28;20033;-72
2023/07/25 12:18:55;;;;;;;3.15;2.03;;;22.20;95.20;;;;;;5014180;28;20037;-72
2023/07/25 12:21:32;;;;;;;3.40;2.10;;;22.10;93.50;;;;;;5014614;28;20041;-70
2023/07/25 12:24:00;;;;;;;2.95;2.10;;;22.20;94.10;;;;;;5013780;28;20034;-71
2023/07/25 12:26:27;;;;;;;2.83;1.83;;;22.30;94.10;;;;;;5014521;28;20033;-71
2023/07/25 12:28:53;;;;;;;2.88;1.83;;;22.50;95.20;;;;;;4998176;28;20033;-71
2023/07/25 12:31:19;;;;;;;4.18;2.20;;;22.60;93.70;;;;;;4994855;28;20030;-71
2023/07/25 12:33:47;;;;;;;3.20;2.10;;;22.60;92.20;;;;;;4977264;28;20077;-71
2023/07/25 12:36:14;;;;;;;3.63;1.75;;;22.70;92.30;;;;;;4994646;28;20101;-71
2023/07/25 12:38:40;;;;;;;8.35;2.08;;;22.70;91.80;;;;;;4994584;28;20022;-71
2023/07/25 12:41:05;;;;;;;2.92;1.95;;;22.80;91.50;;;;;;4993852;28;20033;-71
2023/07/25 12:43:31;;;;;;;3.70;2.15;;;22.80;91.50;;;;;;4994458;28;20373;-72